sensor_id;sensor_type;location;lat;lon;timestamp;temperature;humidity
66190;DHT22;52992;52.084;5.412;2023-12-28T00:02:12;13.00;77.60
66190;DHT22;52992;52.084;5.412;2023-12-28T00:04:40;12.90;77.60
66190;DHT22;52992;52.084;5.412;2023-12-28T00:07:07;13.00;77.70
66190;DHT22;52992;52.084;5.412;2023-12-28T00:09:34;13.00;77.60
66190;DHT22;52992;52.084;5.412;2023-12-28T00:12:02;13.10;78.40
66190;DHT22;52992;52.084;5.412;2023-12-28T00:14:29;13.10;77.90
66190;DHT22;52992;52.084;5.412;2023-12-28T00:16:56;13.20;77.80
66190;DHT22;52992;52.084;5.412;2023-12-28T00:19:23;13.20;77.70
66190;DHT22;52992;52.084;5.412;2023-12-28T00:21:50;13.20;78.20
66190;DHT22;52992;52.084;5.412;2023-12-28T00:24:20;13.30;77.70
66190;DHT22;52992;52.084;5.412;2023-12-28T00:26:48;13.20;77.00
66190;DHT22;52992;52.084;5.412;2023-12-28T00:29:15;13.30;77.20
66190;DHT22;52992;52.084;5.412;2023-12-28T00:31:42;13.30;77.60
66190;DHT22;52992;52.084;5.412;2023-12-28T00:34:09;13.40;77.70
66190;DHT22;52992;52.084;5.412;2023-12-28T00:36:38;13.40;77.30
66190;DHT22;52992;52.084;5.412;2023-12-28T00:39:05;13.30;77.20
66190;DHT22;52992;52.084;5.412;2023-12-28T00:41:31;13.40;77.20
66190;DHT22;52992;52.084;5.412;2023-12-28T00:43:58;13.40;77.40
66190;DHT22;52992;52.084;5.412;2023-12-28T00:46:25;13.40;78.00
66190;DHT22;52992;52.084;5.412;2023-12-28T00:48:52;13.40;77.90
66190;DHT22;52992;52.084;5.412;2023-12-28T00:51:20;13.40;78.20
66190;DHT22;52992;52.084;5.412;2023-12-28T00:53:48;13.50;77.50
66190;DHT22;52992;52.084;5.412;2023-12-28T00:56:15;13.40;77.10
66190;DHT22;52992;52.084;5.412;2023-12-28T00:58:42;13.40;77.90
66190;DHT22;52992;52.084;5.412;2023-12-28T01:01:10;13.40;78.10
66190;DHT22;52992;52.084;5.412;2023-12-28T01:03:39;13.40;77.80
66190;DHT22;52992;52.084;5.412;2023-12-28T01:06:06;13.40;77.90
66190;DHT22;52992;52.084;5.412;2023-12-28T01:08:33;13.40;77.80
66190;DHT22;52992;52.084;5.412;2023-12-28T01:11:01;13.30;77.40
66190;DHT22;52992;52.084;5.412;2023-12-28T01:13:29;13.30;77.80
66190;DHT22;52992;52.084;5.412;2023-12-28T01:15:57;13.30;77.60
66190;DHT22;52992;52.084;5.412;2023-12-28T01:18:24;13.30;77.90
66190;DHT22;52992;52.084;5.412;2023-12-28T01:20:52;13.20;77.60
66190;DHT22;52992;52.084;5.412;2023-12-28T01:23:19;13.20;77.80
66190;DHT22;52992;52.084;5.412;2023-12-28T01:25:45;13.20;78.10
66190;DHT22;52992;52.084;5.412;2023-12-28T01:28:12;13.20;78.50
66190;DHT22;52992;52.084;5.412;2023-12-28T01:30:39;13.20;78.80
66190;DHT22;52992;52.084;5.412;2023-12-28T01:33:07;13.20;77.70
66190;DHT22;52992;52.084;5.412;2023-12-28T01:35:33;13.20;77.90
66190;DHT22;52992;52.084;5.412;2023-12-28T01:38:00;13.20;77.80
66190;DHT22;52992;52.084;5.412;2023-12-28T01:40:28;13.20;78.20
66190;DHT22;52992;52.084;5.412;2023-12-28T01:42:56;13.20;77.70
66190;DHT22;52992;52.084;5.412;2023-12-28T01:45:23;13.20;77.90
66190;DHT22;52992;52.084;5.412;2023-12-28T01:47:50;13.20;78.30
66190;DHT22;52992;52.084;5.412;2023-12-28T01:50:19;13.20;77.80
66190;DHT22;52992;52.084;5.412;2023-12-28T01:52:47;13.20;77.70
66190;DHT22;52992;52.084;5.412;2023-12-28T01:55:15;13.20;77.90
66190;DHT22;52992;52.084;5.412;2023-12-28T01:57:43;13.10;77.50
66190;DHT22;52992;52.084;5.412;2023-12-28T02:00:12;13.10;77.90
66190;DHT22;52992;52.084;5.412;2023-12-28T02:02:41;13.10;77.90
66190;DHT22;52992;52.084;5.412;2023-12-28T02:05:10;13.10;78.70
66190;DHT22;52992;52.084;5.412;2023-12-28T02:07:39;12.90;77.00
66190;DHT22;52992;52.084;5.412;2023-12-28T02:10:07;12.90;78.40
66190;DHT22;52992;52.084;5.412;2023-12-28T02:12:34;13.10;78.60
66190;DHT22;52992;52.084;5.412;2023-12-28T02:15:01;13.10;78.20
66190;DHT22;52992;52.084;5.412;2023-12-28T02:17:35;13.10;77.70
66190;DHT22;52992;52.084;5.412;2023-12-28T02:20:03;13.10;77.80
66190;DHT22;52992;52.084;5.412;2023-12-28T02:22:34;13.10;77.50
66190;DHT22;52992;52.084;5.412;2023-12-28T02:25:04;13.10;77.80
66190;DHT22;52992;52.084;5.412;2023-12-28T02:27:41;13.10;77.70
66190;DHT22;52992;52.084;5.412;2023-12-28T02:30:10;13.10;77.40
66190;DHT22;52992;52.084;5.412;2023-12-28T02:33:28;13.10;77.50
66190;DHT22;52992;52.084;5.412;2023-12-28T02:36:09;13.10;77.20
66190;DHT22;52992;52.084;5.412;2023-12-28T02:38:38;13.20;77.20
66190;DHT22;52992;52.084;5.412;2023-12-28T02:41:06;13.10;77.20
66190;DHT22;52992;52.084;5.412;2023-12-28T02:43:34;13.10;77.00
66190;DHT22;52992;52.084;5.412;2023-12-28T02:46:01;13.20;77.20
66190;DHT22;52992;52.084;5.412;2023-12-28T02:48:28;13.20;77.00
66190;DHT22;52992;52.084;5.412;2023-12-28T02:50:55;13.20;76.60
66190;DHT22;52992;52.084;5.412;2023-12-28T02:53:22;13.30;76.70
66190;DHT22;52992;52.084;5.412;2023-12-28T02:55:49;13.30;76.70
66190;DHT22;52992;52.084;5.412;2023-12-28T02:58:16;13.30;76.80
66190;DHT22;52992;52.084;5.412;2023-12-28T03:00:42;13.30;77.20
66190;DHT22;52992;52.084;5.412;2023-12-28T03:03:09;13.30;76.60
66190;DHT22;52992;52.084;5.412;2023-12-28T03:05:36;13.30;77.00
66190;DHT22;52992;52.084;5.412;2023-12-28T03:08:03;13.30;76.40
66190;DHT22;52992;52.084;5.412;2023-12-28T03:10:30;13.20;76.40
66190;DHT22;52992;52.084;5.412;2023-12-28T03:12:58;13.20;77.00
66190;DHT22;52992;52.084;5.412;2023-12-28T03:15:26;13.20;77.10
66190;DHT22;52992;52.084;5.412;2023-12-28T03:17:52;13.20;76.80
66190;DHT22;52992;52.084;5.412;2023-12-28T03:20:20;13.20;75.80
66190;DHT22;52992;52.084;5.412;2023-12-28T03:22:47;13.20;76.60
66190;DHT22;52992;52.084;5.412;2023-12-28T03:25:14;13.30;76.60
66190;DHT22;52992;52.084;5.412;2023-12-28T03:27:41;13.40;76.70
66190;DHT22;52992;52.084;5.412;2023-12-28T03:30:09;13.40;76.20
66190;DHT22;52992;52.084;5.412;2023-12-28T03:32:37;13.50;76.20
66190;DHT22;52992;52.084;5.412;2023-12-28T03:35:04;13.40;74.90
66190;DHT22;52992;52.084;5.412;2023-12-28T03:37:34;13.40;76.10
66190;DHT22;52992;52.084;5.412;2023-12-28T03:40:01;13.40;75.70
66190;DHT22;52992;52.084;5.412;2023-12-28T03:42:28;13.40;76.20
66190;DHT22;52992;52.084;5.412;2023-12-28T03:44:56;13.40;75.70
66190;DHT22;52992;52.084;5.412;2023-12-28T03:47:22;13.50;75.50
66190;DHT22;52992;52.084;5.412;2023-12-28T03:49:51;13.50;75.20
66190;DHT22;52992;52.084;5.412;2023-12-28T03:52:18;13.40;75.40
66190;DHT22;52992;52.084;5.412;2023-12-28T03:54:44;13.40;75.60
66190;DHT22;52992;52.084;5.412;2023-12-28T03:57:12;13.40;74.90
66190;DHT22;52992;52.084;5.412;2023-12-28T03:59:39;13.40;75.00
66190;DHT22;52992;52.084;5.412;2023-12-28T04:02:06;13.40;75.20
66190;DHT22;52992;52.084;5.412;2023-12-28T04:04:33;13.40;75.20
66190;DHT22;52992;52.084;5.412;2023-12-28T04:07:00;13.40;74.90
66190;DHT22;52992;52.084;5.412;2023-12-28T04:09:27;13.40;75.70
66190;DHT22;52992;52.084;5.412;2023-12-28T04:11:53;13.30;75.80
66190;DHT22;52992;52.084;5.412;2023-12-28T04:14:21;13.30;75.30
66190;DHT22;52992;52.084;5.412;2023-12-28T04:16:47;13.30;74.90
66190;DHT22;52992;52.084;5.412;2023-12-28T04:19:14;13.30;75.50
66190;DHT22;52992;52.084;5.412;2023-12-28T04:21:45;13.30;75.30
66190;DHT22;52992;52.084;5.412;2023-12-28T04:24:12;13.30;75.50
66190;DHT22;52992;52.084;5.412;2023-12-28T04:26:39;13.30;75.60
66190;DHT22;52992;52.084;5.412;2023-12-28T04:29:06;13.30;75.70
66190;DHT22;52992;52.084;5.412;2023-12-28T04:31:40;13.30;75.50
66190;DHT22;52992;52.084;5.412;2023-12-28T04:34:08;13.20;75.40
66190;DHT22;52992;52.084;5.412;2023-12-28T04:36:42;13.20;74.70
66190;DHT22;52992;52.084;5.412;2023-12-28T04:39:10;13.20;75.30
66190;DHT22;52992;52.084;5.412;2023-12-28T04:41:37;13.20;75.20
66190;DHT22;52992;52.084;5.412;2023-12-28T04:44:04;13.20;74.30
66190;DHT22;52992;52.084;5.412;2023-12-28T04:46:31;13.30;74.60
66190;DHT22;52992;52.084;5.412;2023-12-28T04:48:58;13.30;74.50
66190;DHT22;52992;52.084;5.412;2023-12-28T04:51:25;13.30;74.30
66190;DHT22;52992;52.084;5.412;2023-12-28T04:53:52;13.40;74.80
66190;DHT22;52992;52.084;5.412;2023-12-28T04:56:19;13.40;74.50
66190;DHT22;52992;52.084;5.412;2023-12-28T04:58:46;13.40;74.40
66190;DHT22;52992;52.084;5.412;2023-12-28T05:01:13;13.50;74.00
66190;DHT22;52992;52.084;5.412;2023-12-28T05:03:40;13.40;73.20
66190;DHT22;52992;52.084;5.412;2023-12-28T05:06:07;13.50;74.30
66190;DHT22;52992;52.084;5.412;2023-12-28T05:08:34;13.50;74.20
66190;DHT22;52992;52.084;5.412;2023-12-28T05:11:01;13.60;73.70
66190;DHT22;52992;52.084;5.412;2023-12-28T05:13:27;13.60;74.20
66190;DHT22;52992;52.084;5.412;2023-12-28T05:15:54;13.60;73.70
66190;DHT22;52992;52.084;5.412;2023-12-28T05:18:21;13.60;73.70
66190;DHT22;52992;52.084;5.412;2023-12-28T05:20:49;13.60;74.10
66190;DHT22;52992;52.084;5.412;2023-12-28T05:23:15;13.60;72.90
66190;DHT22;52992;52.084;5.412;2023-12-28T05:25:42;13.60;73.00
66190;DHT22;52992;52.084;5.412;2023-12-28T05:28:09;13.70;73.20
66190;DHT22;52992;52.084;5.412;2023-12-28T05:30:36;13.70;72.80
66190;DHT22;52992;52.084;5.412;2023-12-28T05:33:03;13.70;72.70
66190;DHT22;52992;52.084;5.412;2023-12-28T05:35:30;13.60;71.80
66190;DHT22;52992;52.084;5.412;2023-12-28T05:37:57;13.70;72.00
66190;DHT22;52992;52.084;5.412;2023-12-28T05:40:24;13.70;72.30
66190;DHT22;52992;52.084;5.412;2023-12-28T05:42:51;13.60;71.70
66190;DHT22;52992;52.084;5.412;2023-12-28T05:45:18;13.70;71.90
66190;DHT22;52992;52.084;5.412;2023-12-28T05:47:45;13.70;70.90
66190;DHT22;52992;52.084;5.412;2023-12-28T05:50:12;13.70;71.80
66190;DHT22;52992;52.084;5.412;2023-12-28T05:52:39;13.80;71.60
66190;DHT22;52992;52.084;5.412;2023-12-28T05:55:07;13.70;71.50
66190;DHT22;52992;52.084;5.412;2023-12-28T05:57:34;13.70;71.70
66190;DHT22;52992;52.084;5.412;2023-12-28T06:00:01;13.70;70.70
66190;DHT22;52992;52.084;5.412;2023-12-28T06:02:38;13.80;71.70
66190;DHT22;52992;52.084;5.412;2023-12-28T06:05:05;13.80;71.20
66190;DHT22;52992;52.084;5.412;2023-12-28T06:07:32;13.80;72.00
66190;DHT22;52992;52.084;5.412;2023-12-28T06:09:59;13.80;70.50
66190;DHT22;52992;52.084;5.412;2023-12-28T06:12:26;13.80;71.60
66190;DHT22;52992;52.084;5.412;2023-12-28T06:14:53;13.80;70.90
66190;DHT22;52992;52.084;5.412;2023-12-28T06:17:20;13.90;71.70
66190;DHT22;52992;52.084;5.412;2023-12-28T06:19:47;13.80;70.60
66190;DHT22;52992;52.084;5.412;2023-12-28T06:22:14;13.80;71.80
66190;DHT22;52992;52.084;5.412;2023-12-28T06:24:41;13.90;72.00
66190;DHT22;52992;52.084;5.412;2023-12-28T06:27:08;13.90;71.40
66190;DHT22;52992;52.084;5.412;2023-12-28T06:29:35;13.90;70.70
66190;DHT22;52992;52.084;5.412;2023-12-28T06:32:02;13.90;71.80
66190;DHT22;52992;52.084;5.412;2023-12-28T06:34:29;13.90;71.80
66190;DHT22;52992;52.084;5.412;2023-12-28T06:36:56;13.90;69.90
66190;DHT22;52992;52.084;5.412;2023-12-28T06:39:23;13.80;70.60
66190;DHT22;52992;52.084;5.412;2023-12-28T06:41:50;13.90;70.80
66190;DHT22;52992;52.084;5.412;2023-12-28T06:44:17;13.80;71.00
66190;DHT22;52992;52.084;5.412;2023-12-28T06:46:44;13.90;71.20
66190;DHT22;52992;52.084;5.412;2023-12-28T06:49:11;13.90;71.60
66190;DHT22;52992;52.084;5.412;2023-12-28T06:51:38;13.90;69.90
66190;DHT22;52992;52.084;5.412;2023-12-28T06:54:05;13.90;70.60
66190;DHT22;52992;52.084;5.412;2023-12-28T06:56:32;13.90;70.50
66190;DHT22;52992;52.084;5.412;2023-12-28T06:58:59;13.90;70.70
66190;DHT22;52992;52.084;5.412;2023-12-28T07:01:26;13.90;70.40
66190;DHT22;52992;52.084;5.412;2023-12-28T07:03:53;13.90;70.20
66190;DHT22;52992;52.084;5.412;2023-12-28T07:06:20;13.90;71.00
66190;DHT22;52992;52.084;5.412;2023-12-28T07:08:46;14.00;70.70
66190;DHT22;52992;52.084;5.412;2023-12-28T07:11:13;14.00;70.40
66190;DHT22;52992;52.084;5.412;2023-12-28T07:13:40;13.90;71.10
66190;DHT22;52992;52.084;5.412;2023-12-28T07:16:07;13.90;70.90
66190;DHT22;52992;52.084;5.412;2023-12-28T07:18:34;13.90;70.10
66190;DHT22;52992;52.084;5.412;2023-12-28T07:21:02;13.90;70.90
66190;DHT22;52992;52.084;5.412;2023-12-28T07:23:28;13.90;71.00
66190;DHT22;52992;52.084;5.412;2023-12-28T07:25:55;13.80;70.10
66190;DHT22;52992;52.084;5.412;2023-12-28T07:28:22;13.80;69.70
66190;DHT22;52992;52.084;5.412;2023-12-28T07:30:49;13.80;70.70
66190;DHT22;52992;52.084;5.412;2023-12-28T07:33:16;13.70;71.20
66190;DHT22;52992;52.084;5.412;2023-12-28T07:35:43;13.70;71.00
66190;DHT22;52992;52.084;5.412;2023-12-28T07:38:10;13.70;71.10
66190;DHT22;52992;52.084;5.412;2023-12-28T07:40:37;13.70;69.70
66190;DHT22;52992;52.084;5.412;2023-12-28T07:43:04;13.70;70.30
66190;DHT22;52992;52.084;5.412;2023-12-28T07:45:31;13.80;71.20
66190;DHT22;52992;52.084;5.412;2023-12-28T07:48:01;13.80;70.60
66190;DHT22;52992;52.084;5.412;2023-12-28T07:50:29;13.80;70.40
66190;DHT22;52992;52.084;5.412;2023-12-28T07:52:56;13.80;71.30
66190;DHT22;52992;52.084;5.412;2023-12-28T07:55:22;13.70;71.10
66190;DHT22;52992;52.084;5.412;2023-12-28T07:57:49;13.70;70.60
66190;DHT22;52992;52.084;5.412;2023-12-28T08:00:16;13.70;70.40
66190;DHT22;52992;52.084;5.412;2023-12-28T08:02:43;13.70;69.60
66190;DHT22;52992;52.084;5.412;2023-12-28T08:05:10;13.80;70.40
66190;DHT22;52992;52.084;5.412;2023-12-28T08:07:37;13.80;70.00
66190;DHT22;52992;52.084;5.412;2023-12-28T08:10:04;13.80;70.20
66190;DHT22;52992;52.084;5.412;2023-12-28T08:12:32;13.80;70.30
66190;DHT22;52992;52.084;5.412;2023-12-28T08:14:59;13.90;70.20
66190;DHT22;52992;52.084;5.412;2023-12-28T08:17:27;13.80;68.90
66190;DHT22;52992;52.084;5.412;2023-12-28T08:19:54;13.90;70.40
66190;DHT22;52992;52.084;5.412;2023-12-28T08:22:22;14.00;69.60
66190;DHT22;52992;52.084;5.412;2023-12-28T08:24:49;14.00;69.90
66190;DHT22;52992;52.084;5.412;2023-12-28T08:27:16;14.00;68.90
66190;DHT22;52992;52.084;5.412;2023-12-28T08:29:43;13.90;69.50
66190;DHT22;52992;52.084;5.412;2023-12-28T08:32:10;14.00;68.70
66190;DHT22;52992;52.084;5.412;2023-12-28T08:34:37;14.00;69.30
66190;DHT22;52992;52.084;5.412;2023-12-28T08:37:05;14.00;68.90
66190;DHT22;52992;52.084;5.412;2023-12-28T08:39:32;14.10;69.70
66190;DHT22;52992;52.084;5.412;2023-12-28T08:41:59;14.00;68.40
66190;DHT22;52992;52.084;5.412;2023-12-28T08:44:26;14.00;68.00
66190;DHT22;52992;52.084;5.412;2023-12-28T08:46:53;14.00;68.90
66190;DHT22;52992;52.084;5.412;2023-12-28T08:49:20;14.10;69.60
66190;DHT22;52992;52.084;5.412;2023-12-28T08:51:47;14.00;68.90
66190;DHT22;52992;52.084;5.412;2023-12-28T08:54:14;14.10;68.70
66190;DHT22;52992;52.084;5.412;2023-12-28T08:56:41;14.00;68.20
66190;DHT22;52992;52.084;5.412;2023-12-28T08:59:08;14.00;68.70
66190;DHT22;52992;52.084;5.412;2023-12-28T09:01:35;14.10;69.00
66190;DHT22;52992;52.084;5.412;2023-12-28T09:04:02;14.10;69.10
66190;DHT22;52992;52.084;5.412;2023-12-28T09:06:29;14.10;69.20
66190;DHT22;52992;52.084;5.412;2023-12-28T09:08:56;14.10;69.30
66190;DHT22;52992;52.084;5.412;2023-12-28T09:11:23;14.10;68.60
66190;DHT22;52992;52.084;5.412;2023-12-28T09:13:50;14.10;68.30
66190;DHT22;52992;52.084;5.412;2023-12-28T09:16:17;14.10;67.30
66190;DHT22;52992;52.084;5.412;2023-12-28T09:18:44;14.10;67.80
66190;DHT22;52992;52.084;5.412;2023-12-28T09:21:12;14.10;66.80
66190;DHT22;52992;52.084;5.412;2023-12-28T09:23:39;14.10;66.70
66190;DHT22;52992;52.084;5.412;2023-12-28T09:26:07;14.20;67.90
66190;DHT22;52992;52.084;5.412;2023-12-28T09:28:35;14.20;67.50
66190;DHT22;52992;52.084;5.412;2023-12-28T09:31:02;14.20;66.60
66190;DHT22;52992;52.084;5.412;2023-12-28T09:33:30;14.20;66.80
66190;DHT22;52992;52.084;5.412;2023-12-28T09:35:57;14.20;66.50
66190;DHT22;52992;52.084;5.412;2023-12-28T09:38:25;14.20;67.10
66190;DHT22;52992;52.084;5.412;2023-12-28T09:40:54;14.30;66.30
66190;DHT22;52992;52.084;5.412;2023-12-28T09:43:26;14.40;67.30
66190;DHT22;52992;52.084;5.412;2023-12-28T09:45:53;14.50;66.20
66190;DHT22;52992;52.084;5.412;2023-12-28T09:48:23;14.50;66.70
66190;DHT22;52992;52.084;5.412;2023-12-28T09:50:52;14.60;66.80
66190;DHT22;52992;52.084;5.412;2023-12-28T09:53:23;14.60;64.90
66190;DHT22;52992;52.084;5.412;2023-12-28T09:55:50;14.60;65.10
66190;DHT22;52992;52.084;5.412;2023-12-28T09:58:19;14.60;64.20
66190;DHT22;52992;52.084;5.412;2023-12-28T10:00:49;14.60;64.90
66190;DHT22;52992;52.084;5.412;2023-12-28T10:03:17;14.60;64.30
66190;DHT22;52992;52.084;5.412;2023-12-28T10:05:45;14.60;64.00
66190;DHT22;52992;52.084;5.412;2023-12-28T10:08:16;14.60;64.90
66190;DHT22;52992;52.084;5.412;2023-12-28T10:10:44;14.60;65.20
66190;DHT22;52992;52.084;5.412;2023-12-28T10:13:17;14.60;65.60
66190;DHT22;52992;52.084;5.412;2023-12-28T10:15:44;14.50;64.90
66190;DHT22;52992;52.084;5.412;2023-12-28T10:18:12;14.50;65.50
66190;DHT22;52992;52.084;5.412;2023-12-28T10:20:39;14.50;65.00
66190;DHT22;52992;52.084;5.412;2023-12-28T10:23:06;14.50;64.90
66190;DHT22;52992;52.084;5.412;2023-12-28T10:25:34;14.40;64.70
66190;DHT22;52992;52.084;5.412;2023-12-28T10:28:05;14.30;64.60
66190;DHT22;52992;52.084;5.412;2023-12-28T10:30:35;14.40;65.80
66190;DHT22;52992;52.084;5.412;2023-12-28T10:33:05;14.50;65.80
66190;DHT22;52992;52.084;5.412;2023-12-28T10:35:33;14.60;65.30
66190;DHT22;52992;52.084;5.412;2023-12-28T10:38:01;14.50;63.50
66190;DHT22;52992;52.084;5.412;2023-12-28T10:40:30;14.50;64.40
66190;DHT22;52992;52.084;5.412;2023-12-28T10:43:06;14.50;64.20
66190;DHT22;52992;52.084;5.412;2023-12-28T10:45:34;14.60;63.10
66190;DHT22;52992;52.084;5.412;2023-12-28T10:48:12;14.50;62.10
66190;DHT22;52992;52.084;5.412;2023-12-28T10:50:46;14.60;63.10
66190;DHT22;52992;52.084;5.412;2023-12-28T10:53:41;14.70;62.50
66190;DHT22;52992;52.084;5.412;2023-12-28T10:58:49;14.80;63.50
66190;DHT22;52992;52.084;5.412;2023-12-28T11:01:22;14.80;62.10
66190;DHT22;52992;52.084;5.412;2023-12-28T11:04:19;14.80;63.30
66190;DHT22;52992;52.084;5.412;2023-12-28T11:06:50;14.80;63.20
66190;DHT22;52992;52.084;5.412;2023-12-28T11:09:18;14.90;62.80
66190;DHT22;52992;52.084;5.412;2023-12-28T11:11:47;14.80;63.60
66190;DHT22;52992;52.084;5.412;2023-12-28T11:14:17;14.90;63.50
66190;DHT22;52992;52.084;5.412;2023-12-28T11:16:44;14.80;63.30
66190;DHT22;52992;52.084;5.412;2023-12-28T11:19:12;14.90;63.80
66190;DHT22;52992;52.084;5.412;2023-12-28T11:21:40;14.90;62.60
66190;DHT22;52992;52.084;5.412;2023-12-28T11:24:07;14.80;62.30
66190;DHT22;52992;52.084;5.412;2023-12-28T11:26:35;14.80;62.10
66190;DHT22;52992;52.084;5.412;2023-12-28T11:29:03;14.80;62.90
66190;DHT22;52992;52.084;5.412;2023-12-28T11:31:34;14.80;61.80
66190;DHT22;52992;52.084;5.412;2023-12-28T11:34:04;14.80;62.00
66190;DHT22;52992;52.084;5.412;2023-12-28T11:36:32;14.80;62.20
66190;DHT22;52992;52.084;5.412;2023-12-28T11:39:02;14.90;62.60
66190;DHT22;52992;52.084;5.412;2023-12-28T11:41:33;15.00;62.60
66190;DHT22;52992;52.084;5.412;2023-12-28T11:44:05;15.00;62.80
66190;DHT22;52992;52.084;5.412;2023-12-28T11:46:34;15.10;62.00
66190;DHT22;52992;52.084;5.412;2023-12-28T11:49:06;15.00;62.30
66190;DHT22;52992;52.084;5.412;2023-12-28T11:51:37;15.00;62.30
66190;DHT22;52992;52.084;5.412;2023-12-28T11:54:05;14.90;61.50
66190;DHT22;52992;52.084;5.412;2023-12-28T11:56:33;14.80;62.00
66190;DHT22;52992;52.084;5.412;2023-12-28T11:59:00;14.80;62.50
66190;DHT22;52992;52.084;5.412;2023-12-28T12:01:27;14.80;63.20
66190;DHT22;52992;52.084;5.412;2023-12-28T12:03:54;14.80;63.70
66190;DHT22;52992;52.084;5.412;2023-12-28T12:06:21;14.80;63.30
66190;DHT22;52992;52.084;5.412;2023-12-28T12:08:49;14.90;63.30
66190;DHT22;52992;52.084;5.412;2023-12-28T12:11:17;14.90;63.50
66190;DHT22;52992;52.084;5.412;2023-12-28T12:13:49;15.00;62.60
66190;DHT22;52992;52.084;5.412;2023-12-28T12:16:17;15.00;62.10
66190;DHT22;52992;52.084;5.412;2023-12-28T12:18:44;15.00;62.50
66190;DHT22;52992;52.084;5.412;2023-12-28T12:21:12;15.10;62.50
66190;DHT22;52992;52.084;5.412;2023-12-28T12:23:39;15.10;60.60
66190;DHT22;52992;52.084;5.412;2023-12-28T12:26:07;15.00;61.60
66190;DHT22;52992;52.084;5.412;2023-12-28T12:28:34;15.00;60.50
66190;DHT22;52992;52.084;5.412;2023-12-28T12:31:03;14.90;62.30
66190;DHT22;52992;52.084;5.412;2023-12-28T12:33:31;14.90;62.00
66190;DHT22;52992;52.084;5.412;2023-12-28T12:35:59;14.90;62.40
66190;DHT22;52992;52.084;5.412;2023-12-28T12:38:26;14.80;62.40
66190;DHT22;52992;52.084;5.412;2023-12-28T12:40:53;14.90;62.90
66190;DHT22;52992;52.084;5.412;2023-12-28T12:43:21;14.90;62.70
66190;DHT22;52992;52.084;5.412;2023-12-28T12:45:49;15.00;62.80
66190;DHT22;52992;52.084;5.412;2023-12-28T12:48:16;15.00;62.80
66190;DHT22;52992;52.084;5.412;2023-12-28T12:50:44;15.10;62.90
66190;DHT22;52992;52.084;5.412;2023-12-28T12:53:11;15.00;61.80
66190;DHT22;52992;52.084;5.412;2023-12-28T12:55:39;15.00;61.30
66190;DHT22;52992;52.084;5.412;2023-12-28T12:58:05;15.00;61.40
66190;DHT22;52992;52.084;5.412;2023-12-28T13:00:33;14.90;62.30
66190;DHT22;52992;52.084;5.412;2023-12-28T13:03:00;14.90;62.60
66190;DHT22;52992;52.084;5.412;2023-12-28T13:05:28;14.90;62.80
66190;DHT22;52992;52.084;5.412;2023-12-28T13:07:56;14.90;61.10
66190;DHT22;52992;52.084;5.412;2023-12-28T13:10:23;14.90;61.60
66190;DHT22;52992;52.084;5.412;2023-12-28T13:12:49;14.90;61.40
66190;DHT22;52992;52.084;5.412;2023-12-28T13:15:16;14.90;60.80
66190;DHT22;52992;52.084;5.412;2023-12-28T13:17:43;14.80;60.90
66190;DHT22;52992;52.084;5.412;2023-12-28T13:20:11;14.80;60.10
66190;DHT22;52992;52.084;5.412;2023-12-28T13:22:38;14.70;60.40
66190;DHT22;52992;52.084;5.412;2023-12-28T13:25:05;14.70;61.70
66190;DHT22;52992;52.084;5.412;2023-12-28T13:27:32;14.70;61.40
66190;DHT22;52992;52.084;5.412;2023-12-28T13:30:00;14.70;61.30
66190;DHT22;52992;52.084;5.412;2023-12-28T13:32:27;14.80;61.90
66190;DHT22;52992;52.084;5.412;2023-12-28T13:34:54;14.80;62.10
66190;DHT22;52992;52.084;5.412;2023-12-28T13:37:24;14.70;61.70
66190;DHT22;52992;52.084;5.412;2023-12-28T13:39:52;14.70;61.70
66190;DHT22;52992;52.084;5.412;2023-12-28T13:42:19;14.70;62.10
66190;DHT22;52992;52.084;5.412;2023-12-28T13:44:45;14.70;62.90
66190;DHT22;52992;52.084;5.412;2023-12-28T13:47:12;14.80;62.80
66190;DHT22;52992;52.084;5.412;2023-12-28T13:49:39;14.80;62.50
66190;DHT22;52992;52.084;5.412;2023-12-28T13:52:06;14.90;62.90
66190;DHT22;52992;52.084;5.412;2023-12-28T13:54:33;14.90;62.60
66190;DHT22;52992;52.084;5.412;2023-12-28T13:57:00;14.90;61.60
66190;DHT22;52992;52.084;5.412;2023-12-28T13:59:27;14.80;62.70
66190;DHT22;52992;52.084;5.412;2023-12-28T14:01:54;14.80;62.90
66190;DHT22;52992;52.084;5.412;2023-12-28T14:04:21;14.70;60.90
66190;DHT22;52992;52.084;5.412;2023-12-28T14:06:48;14.70;60.90
66190;DHT22;52992;52.084;5.412;2023-12-28T14:09:15;14.60;62.20
66190;DHT22;52992;52.084;5.412;2023-12-28T14:11:47;14.60;63.40
66190;DHT22;52992;52.084;5.412;2023-12-28T14:14:14;14.60;63.00
66190;DHT22;52992;52.084;5.412;2023-12-28T14:16:41;14.60;63.60
66190;DHT22;52992;52.084;5.412;2023-12-28T14:19:12;14.70;63.50
66190;DHT22;52992;52.084;5.412;2023-12-28T14:21:39;14.70;63.50
66190;DHT22;52992;52.084;5.412;2023-12-28T14:24:07;14.60;62.90
66190;DHT22;52992;52.084;5.412;2023-12-28T14:26:34;14.60;63.30
66190;DHT22;52992;52.084;5.412;2023-12-28T14:29:02;14.50;63.50
66190;DHT22;52992;52.084;5.412;2023-12-28T14:31:33;14.50;63.40
66190;DHT22;52992;52.084;5.412;2023-12-28T14:34:01;14.50;64.10
66190;DHT22;52992;52.084;5.412;2023-12-28T14:36:34;14.50;64.40
66190;DHT22;52992;52.084;5.412;2023-12-28T14:39:02;14.40;64.20
66190;DHT22;52992;52.084;5.412;2023-12-28T14:41:37;14.40;65.30
66190;DHT22;52992;52.084;5.412;2023-12-28T14:44:09;14.30;65.70
66190;DHT22;52992;52.084;5.412;2023-12-28T14:46:36;14.30;65.70
66190;DHT22;52992;52.084;5.412;2023-12-28T14:49:03;14.30;65.30
66190;DHT22;52992;52.084;5.412;2023-12-28T14:51:30;14.30;65.60
66190;DHT22;52992;52.084;5.412;2023-12-28T14:53:57;14.30;66.20
66190;DHT22;52992;52.084;5.412;2023-12-28T14:56:24;14.40;66.00
66190;DHT22;52992;52.084;5.412;2023-12-28T14:58:51;14.30;65.90
66190;DHT22;52992;52.084;5.412;2023-12-28T15:01:19;14.40;66.10
66190;DHT22;52992;52.084;5.412;2023-12-28T15:03:48;14.30;65.90
66190;DHT22;52992;52.084;5.412;2023-12-28T15:06:15;14.30;66.30
66190;DHT22;52992;52.084;5.412;2023-12-28T15:08:43;14.40;66.40
66190;DHT22;52992;52.084;5.412;2023-12-28T15:11:10;14.40;66.20
66190;DHT22;52992;52.084;5.412;2023-12-28T15:13:38;14.30;66.00
66190;DHT22;52992;52.084;5.412;2023-12-28T15:16:06;14.30;66.10
66190;DHT22;52992;52.084;5.412;2023-12-28T15:18:33;14.30;65.30
66190;DHT22;52992;52.084;5.412;2023-12-28T15:21:01;14.30;66.00
66190;DHT22;52992;52.084;5.412;2023-12-28T15:23:28;14.30;65.70
66190;DHT22;52992;52.084;5.412;2023-12-28T15:25:55;14.30;65.90
66190;DHT22;52992;52.084;5.412;2023-12-28T15:28:22;14.30;65.60
66190;DHT22;52992;52.084;5.412;2023-12-28T15:30:50;14.30;64.60
66190;DHT22;52992;52.084;5.412;2023-12-28T15:33:17;14.30;65.40
66190;DHT22;52992;52.084;5.412;2023-12-28T15:35:44;14.30;64.90
66190;DHT22;52992;52.084;5.412;2023-12-28T15:38:11;14.10;64.30